Time;durP1;ratioP1;P1;durP2;ratioP2;P2;SDS_P1;SDS_P2;PMS_P1;PMS_P2;Temp;Humidity;BMP_temperature;BMP_pressure;BME280_temperature;BME280_humidity;BME280_pressure;Samples;Min_cycle;Max_cycle;Signal;HPM_P1;HPM_P2
2022/04/15 00:00:14;;;;;;;13.68;11.25;;;9.90;89.00;;;;;;5097146;28;20202;-72
2022/04/15 00:02:40;;;;;;;16.13;11.65;;;9.80;89.20;;;;;;5097090;28;20179;-71
2022/04/15 00:05:34;;;;;;;20.20;11.60;;;9.80;89.50;;;;;;5097046;28;20567;-71
2022/04/15 00:07:59;;;;;;;19.77;11.40;;;9.80;89.70;;;;;;5115012;28;20424;-71
2022/04/15 00:10:28;;;;;;;22.33;11.52;;;9.70;89.60;;;;;;5097110;28;20687;-71
2022/04/15 00:13:01;;;;;;;13.35;10.38;;;9.70;89.60;;;;;;5097284;28;20176;-71
2022/04/15 00:15:33;;;;;;;23.77;14.90;;;9.60;89.40;;;;;;5099698;27;20664;-71
2022/04/15 00:18:02;;;;;;;14.85;10.45;;;9.60;89.60;;;;;;5117452;27;20573;-71
2022/04/15 00:20:29;;;;;;;17.00;11.32;;;9.60;90.00;;;;;;5117214;27;20203;-71
2022/04/15 00:22:58;;;;;;;25.83;15.65;;;9.60;90.00;;;;;;5117017;27;20179;-71
2022/04/15 00:25:28;;;;;;;25.60;16.02;;;9.50;90.10;;;;;;5116726;27;20226;-71
2022/04/15 00:27:54;;;;;;;31.20;17.55;;;9.50;90.10;;;;;;5117176;27;20652;-71
2022/04/15 00:30:21;;;;;;;29.55;17.33;;;9.40;90.10;;;;;;5117069;27;20677;-71
2022/04/15 00:32:50;;;;;;;34.65;17.30;;;9.40;90.20;;;;;;5116855;27;20240;-71
2022/04/15 00:35:23;;;;;;;29.98;19.00;;;9.40;90.40;;;;;;5135235;27;20586;-71
2022/04/15 00:37:50;;;;;;;30.30;16.85;;;9.30;90.40;;;;;;5116730;27;20266;-71
2022/04/15 00:40:16;;;;;;;32.97;16.77;;;9.30;90.40;;;;;;5116751;27;20191;-70
2022/04/15 00:42:44;;;;;;;31.02;17.40;;;9.30;90.50;;;;;;5117013;27;20639;-71
2022/04/15 00:45:10;;;;;;;27.65;16.10;;;9.20;90.60;;;;;;5116785;27;20198;-71
2022/04/15 00:47:55;;;;;;;24.27;14.07;;;9.20;90.70;;;;;;5116891;27;20183;-71
2022/04/15 00:50:23;;;;;;;21.48;11.40;;;9.10;90.80;;;;;;5115420;27;20553;-71
2022/04/15 00:52:59;;;;;;;21.65;10.27;;;9.10;90.80;;;;;;5116077;27;20189;-71
2022/04/15 00:55:27;;;;;;;17.10;10.73;;;9.00;90.80;;;;;;5116761;27;20682;-71
2022/04/15 00:58:02;;;;;;;16.63;9.35;;;9.00;91.00;;;;;;5116214;27;20242;-71
2022/04/15 01:00:35;;;;;;;16.48;8.98;;;8.90;91.00;;;;;;5116416;27;20559;-71
2022/04/15 01:03:09;;;;;;;18.83;8.32;;;8.80;91.10;;;;;;5116671;28;20183;-71
2022/04/15 01:05:40;;;;;;;13.40;8.75;;;8.80;91.30;;;;;;5134748;27;20595;-71
2022/04/15 01:08:21;;;;;;;19.08;9.35;;;8.70;91.40;;;;;;5116175;27;20198;-71
2022/04/15 01:10:52;;;;;;;18.83;10.57;;;8.60;91.50;;;;;;5116293;28;20250;-71
2022/04/15 01:13:28;;;;;;;25.38;11.25;;;8.60;91.60;;;;;;5116376;27;20178;-71
2022/04/15 01:15:56;;;;;;;16.63;10.38;;;8.50;91.70;;;;;;5111279;28;20187;-71
2022/04/15 01:18:29;;;;;;;21.30;11.15;;;8.50;91.80;;;;;;5116252;28;20210;-71
2022/04/15 01:21:03;;;;;;;18.80;11.30;;;8.40;92.00;;;;;;5116261;28;20193;-71
2022/04/15 01:23:29;;;;;;;14.80;9.98;;;8.40;92.00;;;;;;5116405;28;20171;-71
2022/04/15 01:25:55;;;;;;;15.32;9.80;;;8.40;92.20;;;;;;5116136;28;20690;-71
2022/04/15 01:28:22;;;;;;;10.45;8.52;;;8.30;92.20;;;;;;5134570;28;20167;-71
2022/04/15 01:30:48;;;;;;;12.90;9.18;;;8.30;92.30;;;;;;5116073;28;20604;-70
2022/04/15 01:33:17;;;;;;;21.08;11.60;;;8.30;92.50;;;;;;5116612;27;20210;-71
2022/04/15 01:35:42;;;;;;;19.25;10.20;;;8.30;92.50;;;;;;5120440;27;20191;-71
2022/04/15 01:38:14;;;;;;;18.77;9.63;;;8.30;92.70;;;;;;5120638;27;20218;-71
2022/04/15 01:40:43;;;;;;;15.05;9.13;;;8.30;92.70;;;;;;5120362;27;20228;-71
2022/04/15 01:43:10;;;;;;;13.65;9.50;;;8.20;92.70;;;;;;5120165;27;20185;-71
2022/04/15 01:45:37;;;;;;;18.15;9.40;;;8.20;92.70;;;;;;5120091;27;20209;-71
2022/04/15 01:48:03;;;;;;;15.35;10.45;;;8.20;92.80;;;;;;5120376;27;20229;-71
2022/04/15 01:50:31;;;;;;;28.90;13.85;;;8.20;92.80;;;;;;5119867;27;20579;-71
2022/04/15 01:53:05;;;;;;;24.23;13.70;;;8.20;92.90;;;;;;5139046;27;20216;-71
2022/04/15 01:55:38;;;;;;;31.30;15.65;;;8.20;93.00;;;;;;5120113;27;20209;-71
2022/04/15 01:58:08;;;;;;;28.20;12.13;;;8.20;93.10;;;;;;5119704;27;20221;-71
2022/04/15 02:00:37;;;;;;;21.77;10.65;;;8.10;93.10;;;;;;5119817;27;20220;-71
2022/04/15 02:03:03;;;;;;;21.35;10.55;;;8.10;93.30;;;;;;5119907;27;20179;-70
2022/04/15 02:05:31;;;;;;;14.83;8.87;;;8.00;93.20;;;;;;5138245;27;20194;-71
2022/04/15 02:08:00;;;;;;;16.25;9.20;;;8.00;93.40;;;;;;5119086;27;20460;-71
2022/04/15 02:10:41;;;;;;;15.00;9.13;;;8.00;93.40;;;;;;5137992;27;20191;-71
2022/04/15 02:13:07;;;;;;;12.70;9.00;;;8.00;93.40;;;;;;5119808;27;20183;-71
2022/04/15 02:15:34;;;;;;;16.63;8.50;;;7.90;93.40;;;;;;5134938;27;20707;-71
2022/04/15 02:18:00;;;;;;;16.92;8.85;;;7.90;93.40;;;;;;5099257;28;20276;-71
2022/04/15 02:20:27;;;;;;;14.73;8.60;;;7.90;93.50;;;;;;5099080;28;20199;-71
2022/04/15 02:22:57;;;;;;;18.17;9.45;;;7.90;93.50;;;;;;5099186;28;20568;-71
2022/04/15 02:25:23;;;;;;;14.80;9.45;;;7.80;93.50;;;;;;5098910;28;20703;-71
2022/04/15 02:27:50;;;;;;;16.70;9.90;;;7.80;93.60;;;;;;5099159;28;20229;-71
2022/04/15 02:30:19;;;;;;;19.77;11.07;;;7.80;93.70;;;;;;5099083;28;20428;-71
2022/04/15 02:32:45;;;;;;;25.25;12.73;;;7.80;93.80;;;;;;5099230;28;20615;-71
2022/04/15 02:35:17;;;;;;;20.87;12.30;;;7.70;93.80;;;;;;5098679;28;20211;-71
2022/04/15 02:37:50;;;;;;;16.48;11.05;;;7.70;93.80;;;;;;5098804;28;20225;-71
2022/04/15 02:40:18;;;;;;;14.05;9.25;;;7.60;94.00;;;;;;5098835;28;20249;-71
2022/04/15 02:42:44;;;;;;;16.85;9.63;;;7.50;94.10;;;;;;5099060;28;20184;-70
2022/04/15 02:45:12;;;;;;;13.30;8.80;;;7.50;94.30;;;;;;5098705;28;20200;-71
2022/04/15 02:47:41;;;;;;;21.15;10.10;;;7.50;94.40;;;;;;5098605;28;20432;-71
2022/04/15 02:50:07;;;;;;;20.85;12.65;;;7.40;94.30;;;;;;5098432;28;20200;-71
2022/04/15 02:52:38;;;;;;;23.33;12.38;;;7.40;94.60;;;;;;5098541;28;20180;-71
2022/04/15 02:55:07;;;;;;;18.77;12.38;;;7.30;94.70;;;;;;5098650;28;20203;-70
2022/04/15 02:57:33;;;;;;;20.10;12.60;;;7.30;94.90;;;;;;5098328;28;20223;-71
2022/04/15 03:00:00;;;;;;;22.30;12.87;;;7.20;94.80;;;;;;5098199;28;20195;-70
2022/04/15 03:02:35;;;;;;;46.40;17.63;;;7.20;94.90;;;;;;5098532;28;20424;-71
2022/04/15 03:05:11;;;;;;;55.75;23.00;;;7.20;95.00;;;;;;5097969;28;20199;-71
2022/04/15 03:07:38;;;;;;;97.45;34.17;;;7.20;95.10;;;;;;5097462;28;20191;-71
2022/04/15 03:10:07;;;;;;;117.40;41.75;;;7.10;95.20;;;;;;5116376;28;20262;-71
2022/04/15 03:12:39;;;;;;;78.60;31.98;;;7.10;95.40;;;;;;5098260;28;20176;-71
2022/04/15 03:15:09;;;;;;;73.18;30.60;;;7.10;95.60;;;;;;5097934;28;20621;-71
2022/04/15 03:17:35;;;;;;;68.03;28.35;;;7.10;95.60;;;;;;5097810;28;20219;-71
2022/04/15 03:20:02;;;;;;;48.10;22.00;;;7.10;95.70;;;;;;5100247;27;20196;-71
2022/04/15 03:22:34;;;;;;;35.00;16.50;;;7.10;95.70;;;;;;5118316;27;20179;-71
2022/04/15 03:25:00;;;;;;;44.55;21.45;;;7.00;95.70;;;;;;5118011;27;20330;-71
2022/04/15 03:27:27;;;;;;;38.58;18.30;;;7.00;95.80;;;;;;5118424;27;20194;-71
2022/04/15 03:29:55;;;;;;;30.55;15.98;;;7.00;95.90;;;;;;5118315;27;20198;-71
2022/04/15 03:32:21;;;;;;;29.90;17.03;;;7.00;96.00;;;;;;5118447;27;20183;-71
2022/04/15 03:34:55;;;;;;;28.20;17.03;;;6.90;96.00;;;;;;5118019;27;20427;-71
2022/04/15 03:37:28;;;;;;;38.25;17.25;;;7.00;96.10;;;;;;5118236;27;20929;-71
2022/04/15 03:40:02;;;;;;;26.23;15.50;;;6.90;96.10;;;;;;5118103;27;20593;-71
2022/04/15 03:42:59;;;;;;;45.38;25.50;;;6.90;96.30;;;;;;5118003;27;20224;-71
2022/04/15 03:45:27;;;;;;;44.55;21.23;;;6.90;96.40;;;;;;5117887;27;20281;-72
2022/04/15 03:47:58;;;;;;;33.50;16.95;;;6.80;96.60;;;;;;5117860;27;20174;-71
2022/04/15 03:50:30;;;;;;;35.08;17.45;;;6.80;96.60;;;;;;5117576;27;20190;-71
2022/04/15 03:53:06;;;;;;;27.27;15.43;;;6.80;96.60;;;;;;5117993;27;20194;-71
2022/04/15 03:55:33;;;;;;;34.22;16.08;;;6.80;96.70;;;;;;5135740;27;20221;-71
2022/04/15 03:57:59;;;;;;;23.38;15.20;;;6.70;96.80;;;;;;5117777;27;20203;-71
2022/04/15 04:00:29;;;;;;;22.25;12.13;;;6.70;96.90;;;;;;5136273;27;20194;-71
2022/04/15 04:03:04;;;;;;;28.45;14.60;;;6.70;96.90;;;;;;5117675;27;20708;-71
2022/04/15 04:05:37;;;;;;;24.75;13.57;;;6.70;97.10;;;;;;5117405;27;20293;-71
2022/04/15 04:08:08;;;;;;;22.25;13.35;;;6.70;97.20;;;;;;5117567;27;20573;-70
2022/04/15 04:10:37;;;;;;;24.83;14.95;;;6.70;97.30;;;;;;5136014;27;20687;-71
2022/04/15 04:13:05;;;;;;;25.30;14.23;;;6.70;97.30;;;;;;5117226;27;20183;-71
2022/04/15 04:15:32;;;;;;;28.02;15.07;;;6.60;97.40;;;;;;5112702;28;20439;-71
2022/04/15 04:17:58;;;;;;;29.70;15.20;;;6.70;97.70;;;;;;5096926;28;20219;-70
2022/04/15 04:20:24;;;;;;;22.73;12.77;;;6.70;97.80;;;;;;5114918;28;20195;-71
2022/04/15 04:22:54;;;;;;;19.97;11.57;;;6.70;97.80;;;;;;5096710;28;20423;-71
2022/04/15 04:25:25;;;;;;;21.63;11.65;;;6.70;97.80;;;;;;5096369;28;20536;-71
2022/04/15 04:27:52;;;;;;;15.27;8.63;;;6.70;97.80;;;;;;5096483;28;20188;-71
2022/04/15 04:30:18;;;;;;;18.10;9.88;;;6.70;97.80;;;;;;5095102;28;20204;-71
2022/04/15 04:32:51;;;;;;;16.90;9.95;;;6.70;97.90;;;;;;5096908;28;20551;-71
2022/04/15 04:35:20;;;;;;;19.70;9.73;;;6.70;98.10;;;;;;5096381;28;20594;-71
2022/04/15 04:37:48;;;;;;;13.73;9.20;;;6.80;98.40;;;;;;5096588;28;20574;-71
2022/04/15 04:40:15;;;;;;;15.95;10.70;;;6.90;98.20;;;;;;5096889;28;20188;-71
2022/04/15 04:42:53;;;;;;;19.52;10.52;;;6.90;98.30;;;;;;5096338;28;20223;-71
2022/04/15 04:45:20;;;;;;;16.80;9.68;;;7.00;98.50;;;;;;5096387;28;20537;-71
2022/04/15 04:47:48;;;;;;;14.68;9.23;;;7.10;98.50;;;;;;5096245;28;20186;-71
2022/04/15 04:50:25;;;;;;;16.30;10.45;;;7.10;98.70;;;;;;5096032;28;20590;-71
2022/04/15 04:52:52;;;;;;;14.50;9.63;;;7.20;98.70;;;;;;5095990;28;20175;-71
2022/04/15 04:55:20;;;;;;;22.50;11.65;;;7.30;99.10;;;;;;5096577;28;20199;-71
2022/04/15 04:57:47;;;;;;;23.75;13.75;;;7.40;99.00;;;;;;5096340;28;20654;-71
2022/04/15 05:00:16;;;;;;;23.17;13.57;;;7.40;98.70;;;;;;5087955;28;20226;-71
2022/04/15 05:02:44;;;;;;;21.65;13.55;;;7.60;98.60;;;;;;5096338;28;20195;-71
2022/04/15 05:05:15;;;;;;;25.60;13.93;;;7.70;98.60;;;;;;5096289;28;20198;-71
2022/04/15 05:07:41;;;;;;;22.83;13.05;;;7.80;98.40;;;;;;5094545;28;20234;-71
2022/04/15 05:10:08;;;;;;;31.50;15.50;;;7.90;98.70;;;;;;5096356;28;20608;-71
2022/04/15 05:12:36;;;;;;;40.10;17.50;;;8.00;98.70;;;;;;5095882;28;20195;-71
2022/04/15 05:15:02;;;;;;;24.60;15.10;;;8.20;98.60;;;;;;5095845;28;20195;-71
2022/04/15 05:17:32;;;;;;;26.45;13.85;;;8.30;98.30;;;;;;5111575;28;20246;-71
2022/04/15 05:20:00;;;;;;;25.23;13.93;;;8.40;98.40;;;;;;5114222;28;20223;-71
2022/04/15 05:22:32;;;;;;;20.15;14.00;;;8.60;97.70;;;;;;5116767;28;20662;-71
2022/04/15 05:24:58;;;;;;;21.67;12.60;;;8.70;97.30;;;;;;5116271;28;20675;-71
2022/04/15 05:27:32;;;;;;;21.98;15.07;;;8.80;96.90;;;;;;5116550;28;20604;-71
2022/04/15 05:30:02;;;;;;;21.45;13.82;;;9.00;96.70;;;;;;5116255;28;20643;-71
2022/04/15 05:32:29;;;;;;;22.33;13.73;;;9.10;96.70;;;;;;5116227;28;20175;-71
2022/04/15 05:35:00;;;;;;;21.02;13.80;;;9.20;96.40;;;;;;5116031;28;20190;-71
2022/04/15 05:37:29;;;;;;;28.95;16.38;;;9.40;96.10;;;;;;5116342;28;20224;-71
2022/04/15 05:39:55;;;;;;;30.10;16.60;;;9.50;95.90;;;;;;5116457;28;20195;-72
2022/04/15 05:42:26;;;;;;;21.50;15.00;;;9.60;95.90;;;;;;5116048;28;20225;-72
2022/04/15 05:44:52;;;;;;;23.40;14.10;;;9.80;95.60;;;;;;5115931;28;20218;-72
2022/04/15 05:47:19;;;;;;;25.63;14.73;;;10.00;95.40;;;;;;5116672;28;20190;-72
2022/04/15 05:49:45;;;;;;;22.58;14.80;;;10.10;95.00;;;;;;5116130;28;20198;-72
2022/04/15 05:52:15;;;;;;;21.95;14.23;;;10.20;94.80;;;;;;5115982;28;20225;-73
2022/04/15 05:54:43;;;;;;;21.85;12.60;;;10.40;94.80;;;;;;5116010;28;20194;-72
2022/04/15 05:57:10;;;;;;;19.63;12.65;;;10.60;94.80;;;;;;5115927;28;20533;-73
2022/04/15 05:59:37;;;;;;;23.85;14.27;;;10.70;95.00;;;;;;5115707;28;20683;-72
2022/04/15 06:02:07;;;;;;;21.23;14.65;;;10.90;95.00;;;;;;5115870;28;20226;-72
2022/04/15 06:04:43;;;;;;;37.78;22.45;;;11.10;95.10;;;;;;5134197;28;20251;-72
2022/04/15 06:07:13;;;;;;;25.35;17.13;;;11.30;95.30;;;;;;5115824;28;20187;-72
2022/04/15 06:09:46;;;;;;;22.10;15.60;;;11.40;95.20;;;;;;5115704;28;20226;-72
2022/04/15 06:12:21;;;;;;;17.25;11.48;;;11.70;95.50;;;;;;5116282;28;20235;-72
2022/04/15 06:14:49;;;;;;;21.52;15.15;;;11.80;94.70;;;;;;5116369;28;20211;-72
2022/04/15 06:17:21;;;;;;;26.00;13.48;;;12.00;94.20;;;;;;5098601;28;20644;-72
2022/04/15 06:19:48;;;;;;;24.90;15.80;;;12.20;94.30;;;;;;5096989;28;20660;-72
2022/04/15 06:22:17;;;;;;;24.17;15.90;;;12.30;94.00;;;;;;5099194;28;20293;-73
2022/04/15 06:24:44;;;;;;;27.10;17.60;;;12.50;93.80;;;;;;5098676;28;20248;-73
2022/04/15 06:27:10;;;;;;;20.92;15.25;;;12.60;93.80;;;;;;5098887;28;20184;-72
2022/04/15 06:29:36;;;;;;;16.87;10.73;;;12.80;93.80;;;;;;5098898;28;20199;-72
2022/04/15 06:32:05;;;;;;;17.57;10.33;;;12.90;93.40;;;;;;5098941;28;20423;-72
2022/04/15 06:34:32;;;;;;;17.77;11.52;;;13.10;93.10;;;;;;5099085;28;20424;-72
2022/04/15 06:36:58;;;;;;;21.63;11.15;;;13.20;93.10;;;;;;5099049;28;20191;-72
2022/04/15 06:39:27;;;;;;;12.90;10.07;;;13.40;93.10;;;;;;5098737;28;20284;-72
2022/04/15 06:41:53;;;;;;;14.93;10.00;;;13.50;93.30;;;;;;5117198;28;20640;-73
2022/04/15 06:44:19;;;;;;;16.90;9.70;;;13.70;93.40;;;;;;5098633;28;20287;-72
2022/04/15 06:46:46;;;;;;;16.30;11.00;;;13.90;93.20;;;;;;5098594;28;20451;-72
2022/04/15 06:49:12;;;;;;;15.50;10.70;;;14.00;93.30;;;;;;5098430;28;20800;-73
2022/04/15 06:51:39;;;;;;;19.13;10.60;;;14.20;93.20;;;;;;5099028;28;20475;-73
2022/04/15 06:54:10;;;;;;;18.70;9.90;;;14.40;93.00;;;;;;5098495;28;20791;-72
2022/04/15 06:56:36;;;;;;;13.13;9.17;;;14.50;92.90;;;;;;5098383;28;20432;-72
2022/04/15 06:59:02;;;;;;;14.73;9.17;;;14.70;92.60;;;;;;5098511;28;20819;-72
2022/04/15 07:01:30;;;;;;;16.13;10.47;;;14.80;92.60;;;;;;5098493;28;20427;-72
2022/04/15 07:03:56;;;;;;;17.10;10.70;;;15.00;92.50;;;;;;5098410;28;20515;-72
2022/04/15 07:06:22;;;;;;;13.50;9.73;;;15.20;92.70;;;;;;5098799;28;20431;-72
2022/04/15 07:08:48;;;;;;;16.77;11.10;;;15.40;92.70;;;;;;5098238;28;20900;-72
2022/04/15 07:11:14;;;;;;;11.43;9.20;;;15.60;91.60;;;;;;5116203;28;20439;-73
2022/04/15 07:13:40;;;;;;;15.93;9.43;;;15.80;91.30;;;;;;5098309;28;20644;-72
2022/04/15 07:16:20;;;;;;;15.90;9.30;;;15.90;90.90;;;;;;5099923;27;20444;-72
2022/04/15 07:18:46;;;;;;;13.33;9.17;;;16.10;90.50;;;;;;5118538;27;20816;-72
2022/04/15 07:21:12;;;;;;;13.57;7.40;;;16.20;90.60;;;;;;5117845;27;20526;-73
2022/04/15 07:23:43;;;;;;;11.93;7.53;;;16.40;90.60;;;;;;5118235;27;20176;-72
2022/04/15 07:26:14;;;;;;;11.83;8.40;;;16.50;90.20;;;;;;5117352;27;20477;-73
2022/04/15 07:28:40;;;;;;;12.83;8.03;;;16.60;89.60;;;;;;5118418;27;20443;-72
2022/04/15 07:31:07;;;;;;;13.47;8.03;;;16.80;89.10;;;;;;5117171;27;20943;-73
2022/04/15 07:33:32;;;;;;;12.17;7.00;;;17.00;88.20;;;;;;5117949;27;20465;-73
2022/04/15 07:35:59;;;;;;;10.13;6.80;;;17.10;87.20;;;;;;5118194;27;20463;-72
2022/04/15 07:38:29;;;;;;;8.70;6.30;;;17.30;84.90;;;;;;5117093;27;20455;-72
2022/04/15 07:40:55;;;;;;;8.87;6.73;;;17.40;83.70;;;;;;5117836;27;20432;-73
2022/04/15 07:43:27;;;;;;;8.13;6.33;;;17.50;83.10;;;;;;5118284;27;20965;-73
2022/04/15 07:45:55;;;;;;;7.30;5.77;;;17.70;81.90;;;;;;5136152;27;20199;-72
2022/04/15 07:48:21;;;;;;;10.87;5.50;;;17.80;80.60;;;;;;5117831;27;20938;-72
2022/04/15 07:50:47;;;;;;;8.20;4.60;;;18.00;78.10;;;;;;5117597;27;20423;-73
2022/04/15 07:53:14;;;;;;;8.60;5.70;;;18.20;75.00;;;;;;5117718;27;20179;-72
2022/04/15 07:55:43;;;;;;;7.67;5.93;;;18.30;76.60;;;;;;5117460;27;20428;-73
2022/04/15 07:58:09;;;;;;;9.10;6.13;;;18.50;76.70;;;;;;5117898;27;20513;-73
2022/04/15 08:00:39;;;;;;;8.20;6.93;;;18.60;76.00;;;;;;5117892;27;20427;-73
2022/04/15 08:03:05;;;;;;;7.80;6.10;;;18.80;75.10;;;;;;5117455;27;20907;-73
2022/04/15 08:05:35;;;;;;;8.50;5.33;;;19.00;74.80;;;;;;5117443;27;20426;-73
2022/04/15 08:08:07;;;;;;;6.20;5.07;;;19.10;72.50;;;;;;5116630;27;20443;-73
2022/04/15 08:10:39;;;;;;;7.77;5.30;;;19.30;71.60;;;;;;5117520;27;20433;-73
2022/04/15 08:13:06;;;;;;;6.00;5.07;;;19.40;71.70;;;;;;5117727;27;20465;-73
2022/04/15 08:15:38;;;;;;;7.63;5.43;;;19.50;71.80;;;;;;5114124;28;20423;-73
2022/04/15 08:18:04;;;;;;;7.90;5.87;;;19.60;72.90;;;;;;5097114;28;20497;-73
2022/04/15 08:20:45;;;;;;;7.70;6.20;;;19.80;72.20;;;;;;5096695;28;20947;-73
2022/04/15 08:23:11;;;;;;;10.40;6.90;;;19.90;73.20;;;;;;5097046;28;20476;-73
2022/04/15 08:25:57;;;;;;;9.40;5.43;;;20.10;72.80;;;;;;5096401;28;20470;-73
2022/04/15 08:28:29;;;;;;;7.50;5.50;;;20.20;71.20;;;;;;5096485;28;20184;-73
2022/04/15 08:30:58;;;;;;;8.83;6.07;;;20.40;72.00;;;;;;5096506;28;21020;-73
2022/04/15 08:33:25;;;;;;;8.93;5.33;;;20.40;70.50;;;;;;5096740;28;20416;-73
2022/04/15 08:35:56;;;;;;;8.60;5.90;;;20.50;68.20;;;;;;5096552;28;20510;-71
2022/04/15 08:38:28;;;;;;;6.70;5.50;;;20.60;68.00;;;;;;5096738;28;20467;-71
2022/04/15 08:40:59;;;;;;;6.53;4.37;;;20.70;68.20;;;;;;5095464;28;20806;-73
2022/04/15 08:43:29;;;;;;;7.33;5.47;;;20.80;68.10;;;;;;5096018;28;20501;-73
2022/04/15 08:45:56;;;;;;;8.03;5.43;;;20.90;66.10;;;;;;5096323;28;20466;-73
2022/04/15 08:48:25;;;;;;;6.17;5.47;;;21.10;66.20;;;;;;5096397;28;20404;-73
2022/04/15 08:50:52;;;;;;;6.73;5.13;;;21.40;67.60;;;;;;5096254;28;20424;-73
2022/04/15 08:53:22;;;;;;;6.43;4.87;;;22.10;66.80;;;;;;5096136;28;20404;-73
2022/04/15 08:55:48;;;;;;;8.70;5.00;;;23.00;65.80;;;;;;5096070;28;20439;-73
2022/04/15 08:58:14;;;;;;;7.07;5.30;;;24.00;62.10;;;;;;5096267;28;20467;-73
2022/04/15 09:00:44;;;;;;;6.93;5.30;;;24.90;60.20;;;;;;5096001;28;20448;-73
2022/04/15 09:03:12;;;;;;;5.10;4.60;;;25.60;60.10;;;;;;5096299;28;20944;-73
2022/04/15 09:05:39;;;;;;;6.77;4.57;;;26.10;58.20;;;;;;5096122;28;20433;-73
2022/04/15 09:08:08;;;;;;;5.97;4.77;;;26.30;56.10;;;;;;5114892;28;20978;-73
2022/04/15 09:10:38;;;;;;;5.57;4.83;;;26.30;57.20;;;;;;5096222;28;20803;-73
2022/04/15 09:13:08;;;;;;;5.43;4.70;;;26.30;56.10;;;;;;5096241;28;20426;-73
2022/04/15 09:15:36;;;;;;;5.63;4.77;;;26.30;56.00;;;;;;5095969;28;20482;-73
2022/04/15 09:18:02;;;;;;;5.57;4.73;;;26.30;55.80;;;;;;5095899;28;20571;-73
2022/04/15 09:20:33;;;;;;;8.60;4.93;;;26.20;55.20;;;;;;5096232;28;20518;-73
2022/04/15 09:23:11;;;;;;;6.10;4.30;;;26.10;55.10;;;;;;5096287;28;20590;-73
2022/04/15 09:25:44;;;;;;;6.27;4.20;;;26.10;55.40;;;;;;5095635;28;21087;-71
2022/04/15 09:28:20;;;;;;;5.33;4.53;;;26.00;55.00;;;;;;5090762;28;20467;-72
2022/04/15 09:30:50;;;;;;;5.70;4.73;;;26.00;55.20;;;;;;5115555;28;20827;-71
2022/04/15 09:33:23;;;;;;;5.00;4.50;;;25.90;54.50;;;;;;5116379;28;20615;-72
2022/04/15 09:35:54;;;;;;;5.17;4.20;;;25.80;54.60;;;;;;5115346;28;20797;-71
2022/04/15 09:38:42;;;;;;;5.80;4.07;;;25.50;54.80;;;;;;5116052;28;20518;-71
2022/04/15 09:41:29;;;;;;;5.47;4.97;;;25.40;54.70;;;;;;5116050;28;20529;-71
2022/04/15 09:44:03;;;;;;;5.50;4.40;;;25.20;54.80;;;;;;5115066;28;20412;-71
2022/04/15 09:46:30;;;;;;;7.77;4.50;;;25.20;54.90;;;;;;5116017;28;20477;-71
2022/04/15 09:49:06;;;;;;;6.10;4.30;;;25.20;55.30;;;;;;5116429;28;20917;-71
2022/04/15 09:51:43;;;;;;;5.67;4.40;;;25.10;56.90;;;;;;5115526;28;20468;-71
2022/04/15 09:54:30;;;;;;;9.07;4.43;;;25.20;56.00;;;;;;5116673;27;20435;-72
2022/04/15 09:56:59;;;;;;;4.50;4.10;;;25.20;55.30;;;;;;5119669;27;20428;-71
2022/04/15 09:59:29;;;;;;;6.60;4.83;;;25.30;55.80;;;;;;5119832;27;21004;-71
2022/04/15 10:02:07;;;;;;;7.40;4.53;;;25.30;55.50;;;;;;5138954;27;20490;-72
2022/04/15 10:04:35;;;;;;;6.63;4.50;;;25.40;56.10;;;;;;5120175;27;21017;-71
2022/04/15 10:07:06;;;;;;;5.03;4.23;;;25.40;55.10;;;;;;5120129;27;20434;-72
2022/04/15 10:09:39;;;;;;;5.10;4.60;;;25.40;55.60;;;;;;5119932;27;20494;-71
2022/04/15 10:12:09;;;;;;;6.10;4.70;;;25.40;55.90;;;;;;5119770;27;20437;-71
2022/04/15 10:14:42;;;;;;;5.47;4.10;;;25.50;55.20;;;;;;5120055;27;20906;-71
2022/04/15 10:17:20;;;;;;;4.50;4.07;;;25.50;55.10;;;;;;5121681;27;20427;-72
2022/04/15 10:19:46;;;;;;;5.40;4.83;;;25.60;54.90;;;;;;5117635;28;20439;-72
2022/04/15 10:22:14;;;;;;;4.90;3.90;;;25.60;55.20;;;;;;5099404;28;20778;-71
2022/04/15 10:24:44;;;;;;;7.03;4.20;;;25.60;54.40;;;;;;5097452;28;20520;-71
2022/04/15 10:27:12;;;;;;;4.50;3.90;;;25.70;54.10;;;;;;5098685;28;20479;-71
2022/04/15 10:29:40;;;;;;;4.47;3.93;;;25.70;54.70;;;;;;5098796;28;20978;-71
2022/04/15 10:32:18;;;;;;;4.50;4.10;;;25.70;54.80;;;;;;5099281;28;20439;-71
2022/04/15 10:34:47;;;;;;;4.50;4.10;;;25.80;54.90;;;;;;5117182;28;20439;-71
2022/04/15 10:37:15;;;;;;;3.77;3.47;;;25.80;55.30;;;;;;5097842;28;20447;-72
2022/04/15 10:39:51;;;;;;;4.93;4.07;;;25.80;55.00;;;;;;5098853;28;20472;-71
2022/04/15 10:42:31;;;;;;;6.43;4.53;;;25.80;54.70;;;;;;5098968;28;20436;-72
2022/04/15 10:45:02;;;;;;;5.07;4.37;;;25.80;54.30;;;;;;5098646;28;20440;-72
2022/04/15 10:47:31;;;;;;;6.40;4.57;;;25.80;54.90;;;;;;5098709;28;20435;-71
2022/04/15 10:50:06;;;;;;;4.17;3.77;;;25.70;55.00;;;;;;5098447;28;20971;-72
2022/04/15 10:52:38;;;;;;;4.57;3.90;;;25.80;55.40;;;;;;5098840;28;21001;-72
2022/04/15 10:55:12;;;;;;;6.70;4.80;;;25.80;54.70;;;;;;5098367;28;20469;-72
2022/04/15 10:57:43;;;;;;;4.53;4.10;;;25.90;54.60;;;;;;5098723;28;20968;-72
2022/04/15 11:03:20;;;;;;;6.57;4.90;;;26.00;54.70;;;;;;5116637;28;20477;-71
2022/04/15 11:05:49;;;;;;;6.27;4.87;;;26.00;53.80;;;;;;5098132;28;20475;-71
2022/04/15 11:08:19;;;;;;;4.53;4.07;;;26.00;54.10;;;;;;5098319;28;20420;-71
2022/04/15 11:10:58;;;;;;;4.87;3.80;;;26.00;54.10;;;;;;5097898;28;20447;-71
2022/04/15 11:13:44;;;;;;;4.40;3.70;;;26.00;53.90;;;;;;5098266;28;20423;-72
2022/04/15 11:16:18;;;;;;;6.40;4.67;;;26.10;53.90;;;;;;5097808;28;20780;-72
2022/04/15 11:19:06;;;;;;;5.77;3.80;;;26.10;51.70;;;;;;5097822;28;21058;-72
2022/04/15 11:21:37;;;;;;;5.13;4.20;;;26.20;52.00;;;;;;5098375;28;20411;-72
2022/04/15 11:24:12;;;;;;;5.30;4.60;;;26.20;51.50;;;;;;5097926;28;20417;-72
2022/04/15 11:26:39;;;;;;;4.97;4.03;;;26.20;51.40;;;;;;5116412;28;20845;-72
2022/04/15 11:29:08;;;;;;;4.83;4.13;;;26.10;51.60;;;;;;5097571;28;20401;-71
2022/04/15 11:31:35;;;;;;;3.90;3.13;;;26.10;52.00;;;;;;5116032;28;20416;-71
2022/04/15 11:34:16;;;;;;;6.17;3.90;;;26.10;52.50;;;;;;5097784;28;20442;-72
2022/04/15 11:36:47;;;;;;;3.83;3.20;;;26.20;52.30;;;;;;5097902;28;20510;-72
2022/04/15 11:39:21;;;;;;;8.67;5.53;;;26.20;52.20;;;;;;5097386;28;20481;-72
2022/04/15 11:41:54;;;;;;;5.33;4.30;;;26.30;52.20;;;;;;5115967;28;20424;-71
2022/04/15 11:44:22;;;;;;;4.73;4.20;;;26.30;52.60;;;;;;5097635;28;20941;-71
2022/04/15 11:46:52;;;;;;;4.03;3.53;;;26.30;52.50;;;;;;5097360;28;20798;-72
2022/04/15 11:49:23;;;;;;;4.23;3.63;;;26.30;52.50;;;;;;5097760;28;20436;-71
2022/04/15 11:51:56;;;;;;;4.23;3.83;;;26.30;52.40;;;;;;5097337;28;20431;-72
2022/04/15 11:54:36;;;;;;;4.90;4.50;;;26.30;52.40;;;;;;5097727;28;20877;-72
2022/04/15 11:57:10;;;;;;;6.13;5.30;;;26.30;51.90;;;;;;5097498;28;20455;-72
2022/04/15 11:59:41;;;;;;;4.60;4.20;;;26.40;52.60;;;;;;5097442;28;20991;-72
2022/04/15 12:02:08;;;;;;;6.17;4.10;;;26.40;52.40;;;;;;5096917;28;20456;-71
2022/04/15 12:04:34;;;;;;;12.27;8.20;;;26.40;52.10;;;;;;5095943;28;20444;-72
2022/04/15 12:07:01;;;;;;;4.53;4.13;;;26.60;51.70;;;;;;5095970;28;20450;-72
2022/04/15 12:09:31;;;;;;;5.30;4.00;;;26.60;51.90;;;;;;5095990;28;20425;-72
2022/04/15 12:12:01;;;;;;;4.90;4.00;;;26.70;51.80;;;;;;5096546;28;20574;-72
2022/04/15 12:15:00;;;;;;;4.93;3.97;;;26.70;51.90;;;;;;5114551;28;20960;-71
2022/04/15 12:17:26;;;;;;;4.13;3.50;;;26.70;51.30;;;;;;5081507;28;20597;-71
2022/04/15 12:19:58;;;;;;;4.07;3.60;;;26.70;51.50;;;;;;5096921;28;20837;-71
2022/04/15 12:22:29;;;;;;;4.17;3.77;;;26.70;51.90;;;;;;5097180;28;20436;-72
2022/04/15 12:25:23;;;;;;;4.17;3.77;;;26.70;52.00;;;;;;5096681;28;20475;-72
2022/04/15 12:27:55;;;;;;;6.17;4.43;;;26.70;52.00;;;;;;5097283;28;20427;-72
2022/04/15 12:30:37;;;;;;;5.10;4.37;;;26.70;51.90;;;;;;5096739;28;20432;-71
2022/04/15 12:33:08;;;;;;;4.60;4.20;;;26.70;52.10;;;;;;5096592;28;20475;-71
2022/04/15 12:36:07;;;;;;;4.40;3.60;;;26.60;51.50;;;;;;5096601;28;20450;-72
2022/04/15 12:38:56;;;;;;;4.13;3.73;;;26.60;51.60;;;;;;5095154;28;20562;-71
2022/04/15 12:41:23;;;;;;;7.00;4.17;;;26.50;51.50;;;;;;5081973;28;20428;-72
2022/04/15 12:43:49;;;;;;;7.57;4.33;;;26.40;51.50;;;;;;5096410;28;20420;-71
2022/04/15 12:46:19;;;;;;;4.10;3.70;;;26.40;52.40;;;;;;5096356;28;20956;-72
2022/04/15 12:48:51;;;;;;;4.53;4.10;;;26.40;52.30;;;;;;5096553;28;20405;-71
2022/04/15 12:51:18;;;;;;;4.33;3.90;;;26.40;52.80;;;;;;5096502;28;20435;-71
2022/04/15 12:53:44;;;;;;;5.20;3.77;;;26.40;52.60;;;;;;5096052;28;20465;-72
2022/04/15 12:56:14;;;;;;;4.43;4.03;;;26.40;53.00;;;;;;5094427;28;20451;-71
2022/04/15 12:59:02;;;;;;;8.43;4.47;;;26.50;52.30;;;;;;5093471;28;21036;-71